Time;durP1;ratioP1;P1;durP2;ratioP2;P2;SDS_P1;SDS_P2;PMS_P1;PMS_P2;Temp;Humidity;BMP_temperature;BMP_pressure;BME280_temperature;BME280_humidity;BME280_pressure;Samples;Min_cycle;Max_cycle;Signal;HPM_P1;HPM_P2
2021/10/08 00:02:18;;;;;;;14.88;12.52;;;10.90;97.10;;;;;;5082091;28;20225;-87
2021/10/08 00:04:45;;;;;;;16.77;12.88;;;11.00;97.10;;;;;;5076205;28;20209;-88
2021/10/08 00:07:12;;;;;;;16.30;12.82;;;11.10;96.80;;;;;;5076717;28;20224;-86
2021/10/08 00:09:39;;;;;;;15.15;12.23;;;11.00;96.70;;;;;;5075232;28;20204;-86
2021/10/08 00:12:06;;;;;;;14.80;11.68;;;11.00;96.90;;;;;;5075492;28;20222;-87
2021/10/08 00:14:33;;;;;;;15.88;12.63;;;11.10;97.20;;;;;;5086716;28;20212;-86
2021/10/08 00:17:00;;;;;;;15.27;11.90;;;11.10;97.20;;;;;;5077072;28;20244;-87
2021/10/08 00:19:29;;;;;;;15.75;12.02;;;11.20;97.10;;;;;;5087507;28;20213;-86
2021/10/08 00:21:56;;;;;;;14.18;12.02;;;11.30;96.80;;;;;;5088962;28;20276;-86
2021/10/08 00:24:23;;;;;;;13.32;11.73;;;11.30;96.70;;;;;;5056541;28;20205;-87
2021/10/08 00:26:50;;;;;;;15.45;12.80;;;11.30;96.30;;;;;;5085927;28;20200;-86
2021/10/08 00:29:17;;;;;;;14.52;11.77;;;11.30;96.60;;;;;;5077177;28;20203;-87
2021/10/08 00:31:44;;;;;;;15.23;12.43;;;11.30;96.60;;;;;;5060365;28;20286;-87
2021/10/08 00:34:11;;;;;;;15.98;12.48;;;11.30;96.50;;;;;;5086689;28;20236;-87
2021/10/08 00:36:40;;;;;;;13.43;11.90;;;11.30;96.80;;;;;;5072177;28;20282;-86
2021/10/08 00:39:07;;;;;;;15.32;12.25;;;11.30;96.80;;;;;;5075573;28;20603;-87
2021/10/08 00:41:35;;;;;;;15.25;12.10;;;11.30;96.60;;;;;;5074428;28;20197;-86
2021/10/08 00:44:02;;;;;;;13.70;11.65;;;11.30;96.70;;;;;;5079118;28;20329;-87
2021/10/08 00:46:29;;;;;;;14.73;11.70;;;11.30;96.80;;;;;;5074260;28;20232;-86
2021/10/08 00:48:56;;;;;;;14.00;11.38;;;11.40;96.70;;;;;;5071646;28;20241;-88
2021/10/08 00:51:25;;;;;;;14.10;11.95;;;11.40;96.70;;;;;;5076908;28;20288;-87
2021/10/08 00:53:54;;;;;;;15.63;12.80;;;11.30;96.80;;;;;;5076800;28;20626;-88
2021/10/08 00:56:22;;;;;;;14.10;11.93;;;11.30;96.60;;;;;;5071818;28;20202;-87
2021/10/08 00:58:51;;;;;;;14.40;12.48;;;11.30;96.80;;;;;;5073099;28;20224;-87
2021/10/08 01:01:19;;;;;;;15.05;12.70;;;11.30;96.50;;;;;;5070710;28;20647;-88
2021/10/08 01:03:46;;;;;;;15.77;12.30;;;11.20;96.50;;;;;;5069986;28;20231;-87
2021/10/08 01:06:14;;;;;;;16.73;11.68;;;11.10;96.80;;;;;;5066600;28;20237;-88
2021/10/08 01:08:41;;;;;;;13.82;11.77;;;11.00;97.10;;;;;;5073262;28;20217;-87
2021/10/08 01:11:10;;;;;;;14.85;12.68;;;11.10;97.20;;;;;;5054860;28;20282;-86
2021/10/08 01:13:37;;;;;;;14.90;11.82;;;11.10;97.20;;;;;;5067104;28;20227;-87
2021/10/08 01:16:05;;;;;;;14.18;11.75;;;11.10;97.00;;;;;;5085541;28;20224;-87
2021/10/08 01:18:32;;;;;;;15.25;12.00;;;11.20;96.90;;;;;;5078782;28;20219;-86
2021/10/08 01:21:01;;;;;;;16.58;12.45;;;11.20;96.70;;;;;;5076086;28;20700;-86
2021/10/08 01:23:28;;;;;;;15.52;11.88;;;11.20;96.90;;;;;;5078245;28;20220;-86
2021/10/08 01:25:55;;;;;;;12.93;11.27;;;11.20;97.20;;;;;;5063978;28;20212;-88
2021/10/08 01:28:22;;;;;;;15.32;12.35;;;11.20;97.00;;;;;;5082155;28;20221;-87
2021/10/08 01:30:50;;;;;;;14.18;12.50;;;11.20;96.80;;;;;;5082026;28;20641;-87
2021/10/08 01:33:17;;;;;;;16.05;12.65;;;11.20;97.00;;;;;;5074543;28;20233;-87
2021/10/08 01:35:45;;;;;;;18.48;12.60;;;11.10;97.10;;;;;;5076045;28;20288;-86
2021/10/08 01:38:13;;;;;;;13.93;11.52;;;11.00;97.20;;;;;;5085509;28;20696;-86
2021/10/08 01:40:40;;;;;;;14.85;11.52;;;11.00;97.90;;;;;;5077443;28;20270;-87
2021/10/08 01:43:08;;;;;;;13.73;11.65;;;11.10;97.70;;;;;;5063779;28;20229;-87
2021/10/08 01:45:35;;;;;;;13.07;11.40;;;11.10;97.60;;;;;;5073526;28;20664;-87
2021/10/08 01:48:02;;;;;;;14.43;12.13;;;11.20;97.90;;;;;;5075028;28;20232;-87
2021/10/08 01:50:30;;;;;;;14.75;11.65;;;11.20;97.40;;;;;;5079537;28;20199;-87
2021/10/08 01:52:59;;;;;;;14.40;12.15;;;11.30;97.20;;;;;;5089401;28;20799;-88
2021/10/08 01:55:28;;;;;;;15.13;12.13;;;11.30;97.20;;;;;;5077108;28;20291;-87
2021/10/08 01:57:55;;;;;;;13.93;12.43;;;11.30;97.20;;;;;;5086656;28;20221;-87
2021/10/08 02:00:22;;;;;;;15.68;12.90;;;11.30;97.30;;;;;;5086936;28;20229;-87
2021/10/08 02:02:49;;;;;;;16.08;11.98;;;11.30;97.20;;;;;;5075213;28;20652;-86
2021/10/08 02:05:16;;;;;;;13.13;11.73;;;11.40;97.10;;;;;;5084879;28;20198;-87
2021/10/08 02:07:47;;;;;;;14.70;11.98;;;11.30;97.20;;;;;;5076712;28;20295;-86
2021/10/08 02:10:14;;;;;;;14.43;12.15;;;11.30;97.20;;;;;;5099698;28;20283;-88
2021/10/08 02:12:43;;;;;;;13.65;12.13;;;11.40;97.00;;;;;;5094534;28;20307;-86
2021/10/08 02:15:10;;;;;;;14.95;12.82;;;11.40;96.90;;;;;;5085965;28;20196;-86
2021/10/08 02:17:37;;;;;;;16.67;12.98;;;11.40;96.80;;;;;;5085353;28;20596;-87
2021/10/08 02:20:05;;;;;;;12.23;11.02;;;11.40;96.70;;;;;;5074273;28;20197;-87
2021/10/08 02:22:32;;;;;;;17.38;12.45;;;11.30;96.60;;;;;;5079840;28;20221;-86
2021/10/08 02:24:59;;;;;;;13.27;11.85;;;11.40;96.70;;;;;;5072313;28;20229;-87
2021/10/08 02:27:27;;;;;;;13.80;11.52;;;11.30;96.50;;;;;;5089035;28;20233;-87
2021/10/08 02:29:55;;;;;;;16.48;12.50;;;11.20;96.60;;;;;;5074961;28;20198;-86
2021/10/08 02:32:22;;;;;;;15.25;12.05;;;11.30;96.80;;;;;;5068704;28;20220;-86
2021/10/08 02:34:49;;;;;;;14.57;11.43;;;11.30;96.50;;;;;;5075805;28;20197;-86
2021/10/08 02:37:16;;;;;;;14.38;11.75;;;11.30;96.50;;;;;;5080764;28;20235;-87
2021/10/08 02:39:44;;;;;;;15.73;12.10;;;11.30;96.50;;;;;;5080305;28;20264;-86
2021/10/08 02:42:11;;;;;;;13.77;11.38;;;11.30;96.30;;;;;;5079095;28;20229;-87
2021/10/08 02:44:38;;;;;;;12.40;11.07;;;11.30;96.60;;;;;;5073735;28;20211;-87
2021/10/08 02:47:07;;;;;;;15.52;11.85;;;11.30;96.70;;;;;;5085430;28;20196;-86
2021/10/08 02:49:34;;;;;;;13.68;11.70;;;11.40;96.70;;;;;;5082416;28;20276;-86
2021/10/08 02:52:02;;;;;;;13.50;11.75;;;11.30;96.50;;;;;;5073829;28;20728;-86
2021/10/08 02:54:29;;;;;;;13.57;11.85;;;11.30;96.90;;;;;;5068923;28;20213;-86
2021/10/08 02:56:56;;;;;;;15.65;12.38;;;11.30;96.80;;;;;;5077628;28;20209;-87
2021/10/08 02:59:23;;;;;;;15.48;12.60;;;11.40;97.00;;;;;;5082934;28;20205;-87
2021/10/08 03:01:50;;;;;;;15.13;12.52;;;11.30;96.90;;;;;;5074295;28;20213;-88
2021/10/08 03:04:19;;;;;;;14.20;11.93;;;11.20;97.10;;;;;;5074692;28;20206;-89
2021/10/08 03:06:46;;;;;;;18.95;13.30;;;11.20;97.60;;;;;;5080506;28;20212;-87
2021/10/08 03:09:13;;;;;;;15.77;11.95;;;11.20;97.70;;;;;;5071143;28;20311;-87
2021/10/08 03:11:40;;;;;;;20.13;12.70;;;11.20;98.10;;;;;;5092388;28;20201;-86
2021/10/08 03:14:07;;;;;;;15.25;12.57;;;11.20;98.00;;;;;;5077116;28;20336;-86
2021/10/08 03:16:34;;;;;;;16.52;12.55;;;11.20;98.00;;;;;;5079891;28;20208;-88
2021/10/08 03:19:02;;;;;;;15.77;12.60;;;11.20;97.90;;;;;;5075612;28;20218;-87
2021/10/08 03:21:30;;;;;;;14.32;11.95;;;11.30;97.80;;;;;;5094631;28;20205;-87
2021/10/08 03:23:57;;;;;;;18.00;12.80;;;11.40;97.40;;;;;;5076297;28;20225;-88
2021/10/08 03:26:25;;;;;;;15.88;13.00;;;11.50;97.20;;;;;;5073548;28;20194;-86
2021/10/08 03:28:52;;;;;;;14.63;12.52;;;11.50;96.90;;;;;;5079956;28;20222;-86
2021/10/08 03:31:19;;;;;;;16.40;12.63;;;11.40;97.20;;;;;;5069547;28;20205;-86
2021/10/08 03:33:46;;;;;;;14.90;13.20;;;11.40;97.20;;;;;;5075474;28;20237;-86
2021/10/08 03:36:19;;;;;;;17.48;13.35;;;11.50;97.20;;;;;;5070302;28;20201;-87
2021/10/08 03:38:48;;;;;;;17.83;13.80;;;11.40;97.20;;;;;;5079677;28;20213;-87
2021/10/08 03:41:17;;;;;;;15.27;12.82;;;11.30;97.40;;;;;;5084333;28;20249;-87
2021/10/08 03:43:44;;;;;;;15.63;13.15;;;11.40;97.50;;;;;;5078519;28;20253;-87
2021/10/08 03:46:12;;;;;;;14.32;12.57;;;11.40;97.40;;;;;;5092945;28;20346;-86
2021/10/08 03:51:21;;;;;;;18.25;12.55;;;11.50;97.40;;;;;;5073049;28;20284;-87
2021/10/08 03:53:49;;;;;;;14.45;11.55;;;11.50;97.20;;;;;;5066942;28;20520;-88
2021/10/08 03:56:16;;;;;;;16.33;12.02;;;11.50;97.00;;;;;;5069484;28;20298;-87
2021/10/08 03:58:43;;;;;;;14.38;11.57;;;11.50;96.70;;;;;;5076426;28;20225;-87
2021/10/08 04:01:11;;;;;;;14.20;11.32;;;11.60;96.60;;;;;;5052994;28;20225;-87
2021/10/08 04:03:38;;;;;;;15.15;11.18;;;11.60;96.30;;;;;;5065809;28;20236;-87
2021/10/08 04:06:05;;;;;;;14.07;11.15;;;11.60;96.10;;;;;;5081816;28;20193;-87
2021/10/08 04:08:32;;;;;;;13.80;11.43;;;11.50;96.10;;;;;;5078841;28;20315;-87
2021/10/08 04:11:00;;;;;;;14.45;11.88;;;11.50;96.30;;;;;;5078116;28;20261;-88
2021/10/08 04:13:27;;;;;;;14.98;11.43;;;11.60;96.50;;;;;;5078570;28;20291;-88
2021/10/08 04:15:54;;;;;;;13.75;11.15;;;11.60;96.50;;;;;;5088146;28;20300;-86
2021/10/08 04:18:21;;;;;;;12.23;10.95;;;11.60;96.10;;;;;;5091388;28;20228;-87
2021/10/08 04:20:48;;;;;;;13.93;11.43;;;11.50;96.10;;;;;;5080785;28;20228;-88
2021/10/08 04:23:15;;;;;;;14.52;11.90;;;11.60;96.40;;;;;;5086408;28;20249;-87
2021/10/08 04:25:42;;;;;;;14.55;11.93;;;11.50;96.10;;;;;;5077674;28;20197;-86
2021/10/08 04:28:11;;;;;;;16.00;12.45;;;11.40;96.10;;;;;;5077303;28;20225;-88
2021/10/08 04:30:38;;;;;;;16.63;12.57;;;11.30;96.80;;;;;;5083744;28;20600;-87
2021/10/08 04:33:14;;;;;;;16.23;13.05;;;11.20;96.80;;;;;;5078846;28;20569;-87
2021/10/08 04:35:41;;;;;;;20.52;12.80;;;11.00;97.00;;;;;;5082571;28;20255;-88
2021/10/08 04:38:08;;;;;;;15.93;12.63;;;11.10;97.20;;;;;;5077518;28;20226;-89
2021/10/08 04:40:35;;;;;;;15.25;12.43;;;11.20;97.20;;;;;;5091122;28;20207;-87
2021/10/08 04:43:02;;;;;;;17.45;13.20;;;11.10;97.20;;;;;;5080922;28;20221;-87
2021/10/08 04:45:31;;;;;;;16.00;13.45;;;11.10;97.40;;;;;;5075526;28;20202;-86
2021/10/08 04:47:58;;;;;;;14.10;12.50;;;11.00;97.60;;;;;;5084205;28;20238;-86
2021/10/08 04:50:25;;;;;;;16.50;13.52;;;11.00;97.60;;;;;;5080894;28;20644;-87
2021/10/08 04:52:52;;;;;;;15.77;12.77;;;11.10;97.70;;;;;;5084744;28;20229;-87
2021/10/08 04:55:20;;;;;;;21.20;15.18;;;11.30;97.60;;;;;;5070237;28;20291;-87
2021/10/08 04:57:47;;;;;;;16.38;13.35;;;11.10;97.20;;;;;;5079842;28;20232;-86
2021/10/08 05:00:15;;;;;;;18.70;14.60;;;11.10;97.40;;;;;;5080657;28;20210;-86
2021/10/08 05:02:43;;;;;;;18.00;13.55;;;11.20;98.00;;;;;;5075336;28;20229;-86
2021/10/08 05:05:10;;;;;;;19.60;14.77;;;11.30;97.80;;;;;;5083055;28;20563;-86
2021/10/08 05:07:38;;;;;;;23.63;15.65;;;11.30;97.60;;;;;;5074611;28;20308;-87
2021/10/08 05:10:05;;;;;;;18.20;15.23;;;11.20;97.60;;;;;;5072253;28;20198;-85
2021/10/08 05:12:32;;;;;;;21.80;16.60;;;11.10;97.60;;;;;;5071206;28;20233;-86
2021/10/08 05:15:00;;;;;;;17.80;15.07;;;11.20;97.70;;;;;;5075089;28;20230;-89
2021/10/08 05:17:27;;;;;;;21.17;16.25;;;11.30;97.90;;;;;;5080083;28;20246;-86
2021/10/08 05:19:56;;;;;;;21.70;15.88;;;11.30;97.40;;;;;;5082500;28;20745;-87
2021/10/08 05:22:23;;;;;;;19.92;16.70;;;11.30;97.50;;;;;;5089080;28;20225;-86
2021/10/08 05:24:50;;;;;;;21.17;16.08;;;11.40;97.10;;;;;;5090569;28;20265;-89
2021/10/08 05:27:17;;;;;;;26.70;17.30;;;11.40;97.10;;;;;;5083414;28;20666;-87
2021/10/08 05:29:44;;;;;;;24.10;17.23;;;11.30;97.10;;;;;;5080836;28;20194;-86
2021/10/08 05:32:11;;;;;;;24.08;17.13;;;11.30;97.30;;;;;;5080482;28;20280;-88
2021/10/08 05:34:40;;;;;;;21.38;16.08;;;11.20;97.40;;;;;;5077972;28;20218;-87
2021/10/08 05:37:09;;;;;;;26.15;17.73;;;11.10;97.70;;;;;;5081660;28;20582;-88
2021/10/08 05:39:36;;;;;;;24.95;17.02;;;11.00;97.80;;;;;;5078044;28;20209;-88
2021/10/08 05:42:04;;;;;;;20.13;16.10;;;11.00;97.90;;;;;;5075158;28;20266;-88
2021/10/08 05:44:31;;;;;;;21.80;16.63;;;11.20;98.20;;;;;;5072777;28;20205;-88
2021/10/08 05:46:58;;;;;;;26.00;19.02;;;11.40;97.80;;;;;;5069943;28;20193;-87
2021/10/08 05:49:25;;;;;;;28.67;18.33;;;11.30;97.50;;;;;;5079099;28;20212;-87
2021/10/08 05:51:52;;;;;;;27.63;19.30;;;11.20;97.60;;;;;;5072896;28;20280;-87
2021/10/08 05:54:20;;;;;;;27.65;18.77;;;11.20;97.80;;;;;;5073296;28;20651;-85
2021/10/08 05:56:47;;;;;;;29.27;19.50;;;11.10;97.80;;;;;;5077895;28;20204;-85
2021/10/08 05:59:14;;;;;;;25.55;18.67;;;11.10;97.90;;;;;;5080268;28;20215;-85
2021/10/08 06:01:42;;;;;;;23.98;18.50;;;11.10;98.10;;;;;;5077057;28;20303;-86
2021/10/08 06:04:12;;;;;;;23.25;17.95;;;11.30;98.30;;;;;;5057905;28;20701;-90
2021/10/08 06:06:39;;;;;;;24.45;19.20;;;11.30;97.70;;;;;;5079821;28;20204;-87
2021/10/08 06:09:06;;;;;;;24.85;19.10;;;11.30;97.50;;;;;;5073786;28;20226;-87
2021/10/08 06:11:35;;;;;;;26.95;19.83;;;11.30;97.80;;;;;;5074247;28;20209;-87
2021/10/08 06:14:02;;;;;;;25.80;19.90;;;11.20;97.70;;;;;;5080976;28;20222;-86
2021/10/08 06:16:29;;;;;;;30.92;20.35;;;11.20;97.70;;;;;;5069933;28;20300;-86
2021/10/08 06:18:57;;;;;;;28.75;21.15;;;11.30;97.70;;;;;;5086724;28;20509;-87
2021/10/08 06:21:24;;;;;;;28.95;20.77;;;11.40;97.60;;;;;;5092569;28;20199;-87
2021/10/08 06:23:51;;;;;;;29.95;21.52;;;11.50;97.70;;;;;;5095444;28;20619;-87
2021/10/08 06:26:18;;;;;;;32.88;21.35;;;11.50;96.90;;;;;;5094679;28;20196;-86
2021/10/08 06:28:46;;;;;;;29.55;21.70;;;11.40;97.10;;;;;;5095726;28;20226;-87
2021/10/08 06:31:13;;;;;;;29.45;21.63;;;11.30;97.10;;;;;;5100594;28;20268;-87
2021/10/08 06:33:40;;;;;;;29.98;21.05;;;11.30;97.30;;;;;;5096358;28;20228;-87
2021/10/08 06:36:07;;;;;;;31.60;22.13;;;11.30;97.40;;;;;;5097565;28;20205;-88
2021/10/08 06:38:34;;;;;;;34.08;23.83;;;11.40;97.50;;;;;;5087539;28;20220;-87
2021/10/08 06:41:01;;;;;;;32.83;23.75;;;11.50;97.30;;;;;;5077361;28;20194;-89
2021/10/08 06:43:28;;;;;;;33.13;23.58;;;11.40;97.00;;;;;;5071558;28;20308;-87
2021/10/08 06:45:56;;;;;;;32.97;22.85;;;11.40;97.10;;;;;;5073345;28;20193;-88
2021/10/08 06:48:23;;;;;;;33.10;23.27;;;11.40;97.20;;;;;;5079831;28;20777;-89
2021/10/08 06:50:50;;;;;;;34.25;23.40;;;11.50;97.40;;;;;;5074152;28;20190;-87
2021/10/08 06:53:18;;;;;;;38.17;24.92;;;11.50;97.40;;;;;;5077029;28;20364;-88
2021/10/08 06:55:46;;;;;;;35.95;23.33;;;11.50;97.00;;;;;;5071719;28;20307;-87
2021/10/08 06:58:14;;;;;;;33.20;23.60;;;11.60;97.00;;;;;;5074189;28;20221;-91
2021/10/08 07:00:41;;;;;;;34.50;24.13;;;11.50;97.20;;;;;;5073749;28;20659;-88
2021/10/08 07:03:09;;;;;;;33.05;22.45;;;11.60;97.00;;;;;;5073317;28;20231;-88
2021/10/08 07:05:36;;;;;;;31.80;23.33;;;11.60;97.00;;;;;;5073257;28;20288;-88
2021/10/08 07:08:04;;;;;;;31.90;22.67;;;11.60;96.70;;;;;;5075100;28;20227;-89
2021/10/08 07:10:31;;;;;;;32.75;22.77;;;11.60;96.70;;;;;;5082205;28;20207;-88
2021/10/08 07:12:58;;;;;;;30.08;22.75;;;11.50;96.70;;;;;;5075260;28;20305;-88
2021/10/08 07:15:25;;;;;;;31.23;23.00;;;11.40;97.10;;;;;;5079108;28;20229;-88
2021/10/08 07:17:54;;;;;;;30.85;22.90;;;11.50;97.20;;;;;;5074570;28;20251;-88
2021/10/08 07:20:24;;;;;;;34.28;23.70;;;11.60;97.10;;;;;;5068591;28;20274;-88
2021/10/08 07:22:53;;;;;;;31.92;21.52;;;11.60;96.90;;;;;;5059884;28;20225;-87
2021/10/08 07:25:22;;;;;;;33.13;22.70;;;11.50;96.80;;;;;;5080750;28;20201;-87
2021/10/08 07:27:49;;;;;;;30.67;21.25;;;11.50;96.70;;;;;;5066182;28;20224;-88
2021/10/08 07:30:17;;;;;;;29.63;21.25;;;11.40;96.90;;;;;;5068101;28;20214;-89
2021/10/08 07:32:45;;;;;;;30.70;21.65;;;11.60;97.20;;;;;;5073215;28;20225;-87
2021/10/08 07:35:14;;;;;;;32.75;21.52;;;11.70;97.30;;;;;;5063686;28;20229;-88
2021/10/08 07:37:43;;;;;;;30.20;21.48;;;11.70;96.50;;;;;;5074967;28;20224;-87
2021/10/08 07:40:12;;;;;;;29.55;20.95;;;11.80;96.40;;;;;;5076947;28;20291;-88
2021/10/08 07:42:39;;;;;;;32.70;21.42;;;11.80;96.20;;;;;;5080725;28;20225;-88
2021/10/08 07:45:08;;;;;;;28.85;20.88;;;11.90;96.20;;;;;;5077056;28;20217;-88
2021/10/08 07:47:35;;;;;;;28.50;19.67;;;12.00;96.20;;;;;;5075944;28;20227;-88
2021/10/08 07:50:03;;;;;;;27.77;19.95;;;11.90;95.90;;;;;;5083176;28;20193;-88
2021/10/08 07:52:30;;;;;;;27.70;19.27;;;11.90;96.20;;;;;;5073708;28;20225;-88
2021/10/08 07:55:01;;;;;;;26.98;18.67;;;11.90;96.00;;;;;;5077824;28;20245;-88
2021/10/08 07:57:27;;;;;;;26.23;18.50;;;11.90;96.20;;;;;;5070628;28;21865;-88
2021/10/08 07:59:55;;;;;;;24.88;17.95;;;11.80;96.10;;;;;;5075760;28;20645;-88
2021/10/08 08:02:23;;;;;;;28.52;18.45;;;11.70;96.10;;;;;;5067537;28;20247;-90
2021/10/08 08:04:50;;;;;;;25.92;18.75;;;11.80;96.10;;;;;;5075934;28;20676;-88
2021/10/08 08:07:18;;;;;;;26.88;18.88;;;11.80;96.10;;;;;;5072917;28;20218;-88
2021/10/08 08:09:45;;;;;;;23.92;17.25;;;11.80;96.20;;;;;;5076999;28;20269;-89
2021/10/08 08:12:13;;;;;;;26.92;18.52;;;11.80;96.10;;;;;;5070980;28;20239;-89
2021/10/08 08:14:41;;;;;;;26.83;17.90;;;11.80;96.20;;;;;;5074479;28;20804;-88
2021/10/08 08:17:08;;;;;;;24.55;18.67;;;11.80;96.20;;;;;;5073486;28;20231;-89
2021/10/08 08:19:35;;;;;;;25.08;16.98;;;11.80;96.10;;;;;;5078586;28;20209;-88
2021/10/08 08:22:02;;;;;;;25.27;17.65;;;11.80;96.40;;;;;;5081197;28;20192;-88
2021/10/08 08:24:30;;;;;;;29.25;17.63;;;11.90;96.50;;;;;;5091101;28;20203;-89
2021/10/08 08:26:57;;;;;;;27.52;17.45;;;11.90;96.40;;;;;;5078646;28;20197;-89
2021/10/08 08:29:26;;;;;;;23.15;17.27;;;12.00;96.20;;;;;;5081911;28;20201;-88
2021/10/08 08:31:56;;;;;;;23.52;16.38;;;12.10;96.20;;;;;;5081658;28;20205;-88
2021/10/08 08:34:25;;;;;;;26.08;17.90;;;12.10;96.20;;;;;;5081660;28;20227;-89
2021/10/08 08:36:52;;;;;;;23.77;16.38;;;12.30;96.30;;;;;;5080257;28;20209;-88
2021/10/08 08:39:20;;;;;;;23.38;16.10;;;12.20;96.20;;;;;;5093021;28;20730;-88
2021/10/08 08:41:47;;;;;;;22.23;16.20;;;12.20;96.20;;;;;;5089236;28;20200;-88
2021/10/08 08:44:14;;;;;;;22.58;15.75;;;12.20;95.80;;;;;;5085025;28;20787;-88
2021/10/08 08:46:44;;;;;;;22.75;15.00;;;12.00;96.20;;;;;;5079933;28;20292;-88
2021/10/08 08:49:11;;;;;;;22.23;15.20;;;12.00;96.20;;;;;;5084326;28;20628;-88
2021/10/08 08:51:38;;;;;;;21.80;15.52;;;12.00;96.90;;;;;;5101139;28;20259;-88
2021/10/08 08:54:08;;;;;;;23.30;15.45;;;12.10;96.70;;;;;;5082663;28;20308;-89
2021/10/08 08:56:36;;;;;;;20.38;14.73;;;12.10;96.60;;;;;;5090652;28;20283;-88
2021/10/08 08:59:11;;;;;;;22.42;15.80;;;12.40;96.80;;;;;;5085115;28;20232;-89
2021/10/08 09:02:01;;;;;;;21.35;14.88;;;12.60;96.30;;;;;;5086503;28;20199;-88
2021/10/08 09:04:29;;;;;;;20.50;15.65;;;12.60;95.80;;;;;;5092617;28;20239;-88
2021/10/08 09:10:26;;;;;;;20.92;15.02;;;12.50;96.30;;;;;;5044717;28;20230;-89
2021/10/08 09:12:56;;;;;;;19.85;15.13;;;12.50;95.70;;;;;;5077526;28;20252;-89
2021/10/08 09:15:28;;;;;;;20.50;15.65;;;12.40;96.30;;;;;;5081286;28;20221;-88
2021/10/08 09:18:21;;;;;;;22.35;16.17;;;12.30;96.30;;;;;;5083461;28;20232;-89
2021/10/08 09:21:21;;;;;;;22.00;15.45;;;12.30;96.90;;;;;;5083335;28;20200;-88
2021/10/08 09:24:16;;;;;;;19.25;14.90;;;12.20;97.10;;;;;;5084175;28;20285;-88
2021/10/08 09:27:15;;;;;;;21.23;15.10;;;12.30;97.00;;;;;;5077280;28;20212;-89
2021/10/08 09:29:51;;;;;;;24.35;16.00;;;12.70;97.10;;;;;;5079735;28;20242;-88
2021/10/08 09:32:20;;;;;;;17.38;14.48;;;13.10;96.40;;;;;;5091883;28;20743;-89
2021/10/08 09:34:50;;;;;;;16.85;12.52;;;13.10;95.60;;;;;;5077436;28;20308;-89
2021/10/08 09:37:18;;;;;;;17.15;12.63;;;13.20;94.90;;;;;;5073470;28;20229;-89
2021/10/08 09:39:50;;;;;;;12.95;10.88;;;13.40;94.90;;;;;;5072416;28;20335;-89
2021/10/08 09:42:21;;;;;;;15.80;11.40;;;13.60;94.50;;;;;;5079101;28;20229;-89
2021/10/08 09:44:51;;;;;;;12.23;10.65;;;13.60;93.80;;;;;;5076986;28;20269;-89
2021/10/08 09:47:19;;;;;;;10.80;9.63;;;13.40;94.10;;;;;;5068617;28;20244;-89
2021/10/08 09:49:49;;;;;;;10.88;9.20;;;13.50;94.40;;;;;;5070499;28;20194;-89
2021/10/08 09:52:20;;;;;;;12.82;9.35;;;13.50;94.40;;;;;;5073866;28;20592;-88
2021/10/08 09:54:49;;;;;;;13.00;9.57;;;13.50;94.10;;;;;;5069964;28;20221;-88
2021/10/08 09:57:16;;;;;;;9.75;8.57;;;13.40;94.60;;;;;;5067159;28;20281;-90
2021/10/08 09:59:43;;;;;;;10.07;7.63;;;13.40;94.00;;;;;;5066766;28;20209;-90
2021/10/08 10:02:11;;;;;;;10.80;8.32;;;13.30;93.80;;;;;;5070385;28;20205;-89
2021/10/08 10:04:51;;;;;;;9.50;8.45;;;13.20;94.10;;;;;;5074037;28;20206;-89
2021/10/08 10:07:21;;;;;;;9.57;7.78;;;13.20;94.00;;;;;;5074927;28;20247;-89
2021/10/08 10:09:49;;;;;;;8.13;7.35;;;13.40;94.50;;;;;;5078887;28;20197;-89
2021/10/08 10:12:18;;;;;;;9.00;7.97;;;13.50;93.90;;;;;;5066953;28;20589;-89
2021/10/08 10:14:47;;;;;;;9.68;8.30;;;13.50;94.10;;;;;;5082269;28;20238;-88
2021/10/08 10:17:16;;;;;;;9.38;7.93;;;13.30;94.00;;;;;;5073720;28;20225;-90
2021/10/08 10:19:45;;;;;;;8.48;7.60;;;13.30;94.10;;;;;;5075046;28;20203;-90
2021/10/08 10:22:16;;;;;;;9.90;8.07;;;13.40;94.50;;;;;;5074868;28;20252;-90
2021/10/08 10:24:44;;;;;;;8.60;7.70;;;13.50;94.30;;;;;;5074951;28;20828;-89
2021/10/08 10:27:13;;;;;;;8.00;7.20;;;13.50;94.10;;;;;;5071228;28;20205;-89
2021/10/08 10:29:42;;;;;;;9.82;8.40;;;13.80;93.90;;;;;;5071645;28;20204;-90
2021/10/08 10:32:10;;;;;;;9.85;8.52;;;14.00;92.70;;;;;;5069722;28;20200;-90
2021/10/08 10:34:38;;;;;;;9.63;8.48;;;14.10;92.50;;;;;;5079760;28;20200;-89
2021/10/08 10:37:05;;;;;;;10.13;9.13;;;14.20;92.50;;;;;;5069082;28;20668;-89
2021/10/08 10:39:34;;;;;;;9.85;8.85;;;14.40;91.30;;;;;;5063440;28;20212;-89
2021/10/08 10:42:15;;;;;;;12.35;9.63;;;14.50;91.30;;;;;;5064341;28;20197;-88
2021/10/08 10:45:10;;;;;;;9.50;8.50;;;14.50;91.30;;;;;;5062647;28;20200;-89
2021/10/08 10:47:38;;;;;;;10.02;9.02;;;14.60;90.10;;;;;;5066178;28;20234;-89
2021/10/08 10:50:13;;;;;;;10.57;9.48;;;14.60;88.70;;;;;;5072354;28;20620;-89
2021/10/08 10:52:51;;;;;;;9.20;8.25;;;14.70;89.70;;;;;;5072861;28;20691;-86
2021/10/08 10:58:29;;;;;;;10.80;9.70;;;15.20;87.50;;;;;;5067138;28;20209;-88
2021/10/08 11:01:00;;;;;;;12.38;10.50;;;15.30;85.00;;;;;;5074168;28;20204;-88
2021/10/08 11:03:35;;;;;;;10.98;9.88;;;15.40;83.10;;;;;;5071537;28;20222;-87
2021/10/08 11:06:24;;;;;;;12.38;11.07;;;15.30;85.00;;;;;;5074894;28;20200;-88
2021/10/08 11:09:20;;;;;;;12.93;10.95;;;15.30;81.50;;;;;;5083197;28;20343;-88
2021/10/08 11:12:07;;;;;;;11.95;10.75;;;15.40;81.30;;;;;;5077446;28;20246;-87
2021/10/08 11:14:35;;;;;;;11.85;10.07;;;15.70;80.80;;;;;;5072002;28;20209;-89
2021/10/08 11:17:40;;;;;;;10.90;9.80;;;16.00;78.00;;;;;;5069796;28;20225;-89
2021/10/08 11:20:08;;;;;;;11.32;10.23;;;16.00;78.00;;;;;;5067360;28;20204;-89
2021/10/08 11:22:44;;;;;;;13.02;9.60;;;15.70;78.90;;;;;;5087737;28;20232;-91
2021/10/08 11:25:12;;;;;;;11.18;9.90;;;15.80;77.90;;;;;;5069489;28;20196;-91
2021/10/08 11:27:40;;;;;;;10.38;9.38;;;15.50;79.50;;;;;;5076230;28;20588;-89
2021/10/08 11:30:10;;;;;;;9.93;8.93;;;15.30;80.60;;;;;;5082095;28;20196;-89
2021/10/08 11:32:44;;;;;;;10.85;9.75;;;15.30;81.60;;;;;;5066046;28;20225;-90
2021/10/08 11:35:14;;;;;;;11.80;10.30;;;15.10;81.10;;;;;;5062046;28;20281;-90
2021/10/08 11:37:45;;;;;;;11.27;9.98;;;14.80;81.70;;;;;;5071388;28;20279;-89
2021/10/08 11:40:15;;;;;;;11.82;10.63;;;15.00;80.90;;;;;;5077146;28;20693;-89
2021/10/08 11:42:48;;;;;;;12.75;10.70;;;15.00;80.40;;;;;;5069269;28;20316;-89
2021/10/08 11:45:21;;;;;;;11.18;9.98;;;14.90;80.80;;;;;;5059116;28;20193;-89
2021/10/08 11:47:50;;;;;;;11.55;10.35;;;14.90;81.80;;;;;;5060938;28;20223;-88
2021/10/08 11:50:30;;;;;;;11.95;10.63;;;14.90;83.20;;;;;;5064922;28;20209;-90
2021/10/08 11:53:00;;;;;;;12.13;10.80;;;14.60;85.70;;;;;;5075015;28;20690;-90
2021/10/08 11:55:28;;;;;;;13.25;11.52;;;14.80;84.50;;;;;;5059199;28;20684;-89
2021/10/08 11:57:57;;;;;;;11.93;10.68;;;15.00;86.00;;;;;;5068590;28;20224;-89
2021/10/08 12:00:28;;;;;;;11.73;10.48;;;15.40;84.70;;;;;;5071673;28;20281;-89
2021/10/08 12:02:57;;;;;;;12.93;11.52;;;15.80;82.90;;;;;;5060277;28;20253;-89
2021/10/08 12:05:25;;;;;;;14.75;11.88;;;15.90;77.90;;;;;;5064285;28;20251;-90
2021/10/08 12:08:01;;;;;;;14.48;12.43;;;15.60;77.70;;;;;;5067655;28;20231;-90
2021/10/08 12:10:29;;;;;;;12.48;11.18;;;15.60;79.60;;;;;;5061600;28;20205;-90
2021/10/08 12:12:58;;;;;;;14.52;12.43;;;15.60;77.70;;;;;;5064759;28;20233;-89
2021/10/08 12:15:29;;;;;;;13.38;12.00;;;15.60;76.40;;;;;;5067333;28;20228;-89
2021/10/08 12:17:57;;;;;;;16.08;13.35;;;15.60;76.20;;;;;;5067416;28;20233;-89
2021/10/08 12:20:26;;;;;;;15.32;12.77;;;15.50;75.00;;;;;;5066429;28;20201;-89
2021/10/08 12:23:14;;;;;;;15.25;12.75;;;15.40;78.10;;;;;;5066689;28;20217;-89
2021/10/08 12:25:42;;;;;;;15.45;12.80;;;15.50;76.60;;;;;;5066046;28;20200;-90
2021/10/08 12:28:10;;;;;;;13.82;12.25;;;15.30;77.50;;;;;;5067289;28;20267;-89
2021/10/08 12:30:52;;;;;;;14.95;12.45;;;15.40;77.60;;;;;;5070691;28;20222;-88
2021/10/08 12:33:28;;;;;;;14.18;12.73;;;15.50;76.20;;;;;;5065992;28;20225;-90
2021/10/08 12:36:24;;;;;;;14.48;13.00;;;15.60;74.50;;;;;;5072253;28;20216;-90
2021/10/08 12:38:53;;;;;;;14.23;12.73;;;15.50;74.90;;;;;;5069350;28;20248;-90
2021/10/08 12:41:22;;;;;;;14.98;11.93;;;15.60;73.50;;;;;;5072332;28;20197;-89
2021/10/08 12:43:49;;;;;;;12.75;11.45;;;15.40;75.40;;;;;;5065305;28;20229;-92
2021/10/08 12:46:19;;;;;;;13.57;12.10;;;15.50;70.40;;;;;;5069392;28;20674;-90
2021/10/08 12:48:57;;;;;;;14.15;11.32;;;15.70;68.90;;;;;;5070228;28;20236;-90